.
WxDataArchive / Data Records for 2015-04-30
2015-04-29 April 2015 2015-05-01

Data Records for Thursday, 30 April 2015

Time	Temp	Chill	HIndex	Humid	Dewpt	 Wind 	HiWind	WindDir	Rain 	Barom
-----	----	-----	------	-----	-----	------	------	-------	-----	-----
00:00	54.1	54.1	54.1	53	37.4	0	1	292	0.00	29.785 
00:05	53.9	53.9	53.9	53	37.2	0	1	292	0.00	29.785 
00:10	53.9	53.9	53.9	53	37.2	0	3	292	0.00	29.785 
00:15	53.9	53.9	53.9	53	37.2	0	1	292	0.00	29.785 
00:20	53.8	53.8	53.8	54	37.5	0	3	292	0.00	29.785 
00:25	53.8	53.8	53.8	53	37.1	0	2	292	0.00	29.785 
00:30	53.6	53.6	53.6	53	36.9	0	3	292	0.00	29.787 
00:35	53.6	53.6	53.6	53	36.9	0	2	292	0.00	29.787 
00:40	53.3	53.3	53.3	54	37.1	0	1	292	0.00	29.787 
00:45	53.2	53.2	53.2	54	37.0	0	1	292	0.00	29.787 
00:50	52.9	52.9	52.9	54	36.7	0	1	292	0.00	29.787 
00:55	52.6	52.6	52.6	55	36.9	0	0	---	0.00	29.787 
01:00	52.3	52.3	52.3	55	36.6	0	1	292	0.00	29.786 
01:05	52.0	52.0	52.0	55	36.3	0	1	292	0.00	29.786 
01:10	51.7	51.7	51.7	56	36.5	0	0	---	0.00	29.786 
01:15	51.4	51.4	51.4	56	36.2	0	0	---	0.00	29.784 
01:20	51.0	51.0	51.0	57	36.3	0	0	---	0.00	29.784 
01:25	50.7	50.7	50.7	58	36.5	0	0	---	0.00	29.784 
01:30	50.2	50.2	50.2	58	36.0	0	1	292	0.00	29.780 
01:35	49.9	49.9	49.9	59	36.1	0	0	---	0.00	29.780 
01:40	49.6	49.6	49.6	59	35.9	0	0	---	0.00	29.780 
01:45	49.4	49.4	49.4	60	36.1	0	0	---	0.00	29.782 
01:50	48.9	48.9	48.9	61	36.0	0	0	---	0.00	29.782 
01:55	48.6	48.6	48.6	61	35.8	0	0	---	0.00	29.782 
02:00	48.3	48.3	48.3	62	35.9	0	0	---	0.00	29.778 
02:05	48.0	48.0	48.0	62	35.6	0	0	---	0.00	29.778 
02:10	47.7	47.7	47.7	63	35.7	0	0	---	0.00	29.778 
02:15	47.6	47.6	47.6	63	35.6	0	0	---	0.00	29.776 
02:20	47.4	47.4	47.4	64	35.8	0	0	---	0.00	29.776 
02:25	47.3	47.3	47.3	64	35.7	0	0	---	0.00	29.776 
02:30	47.0	47.0	47.0	65	35.9	0	0	---	0.00	29.776 
02:35	46.8	46.8	46.8	65	35.7	0	0	---	0.00	29.776 
02:40	46.7	46.7	46.7	65	35.6	0	0	---	0.00	29.776 
02:45	46.4	46.4	46.4	66	35.7	0	0	---	0.00	29.775 
02:50	46.2	46.2	46.2	66	35.5	0	0	---	0.00	29.775 
02:55	46.0	46.0	46.0	67	35.7	0	0	---	0.00	29.775 
03:00	45.7	45.7	45.7	67	35.4	0	0	---	0.00	29.771 
03:05	45.5	45.5	45.5	68	35.6	0	0	---	0.00	29.771 
03:10	45.5	45.5	45.5	69	35.9	0	0	---	0.00	29.771 
03:15	45.4	45.4	45.4	69	35.8	0	0	---	0.00	29.772 
03:20	45.2	45.2	45.2	69	35.6	0	0	---	0.00	29.772 
03:25	45.1	45.1	45.1	70	35.9	0	0	---	0.00	29.772 
03:30	45.1	45.1	45.1	70	35.9	0	0	---	0.00	29.776 
03:35	44.9	44.9	44.9	71	36.1	0	0	---	0.00	29.776 
03:40	44.9	44.9	44.9	72	36.4	0	0	---	0.00	29.776 
03:45	44.9	44.9	44.9	72	36.4	0	0	---	0.00	29.776 
03:50	44.9	44.9	44.9	73	36.8	0	0	---	0.00	29.776 
03:55	44.9	44.9	44.9	73	36.8	0	0	---	0.00	29.776 
04:00	44.9	44.9	44.9	74	37.1	0	0	---	0.00	29.776 
04:05	44.8	44.8	44.8	74	37.0	0	0	---	0.00	29.776 
04:10	44.8	44.8	44.8	74	37.0	0	1	292	0.00	29.776 
04:15	44.6	44.6	44.6	75	37.2	0	0	---	0.00	29.776 
04:20	44.6	44.6	44.6	76	37.5	0	1	292	0.00	29.776 
04:25	44.6	44.6	44.6	76	37.5	0	0	---	0.00	29.776 
04:30	44.6	44.6	44.6	77	37.8	0	0	---	0.00	29.774 
04:35	44.5	44.5	44.5	78	38.1	0	0	---	0.00	29.774 
04:40	44.3	44.3	44.3	78	37.9	0	0	---	0.00	29.774 
04:45	44.3	44.3	44.3	79	38.2	0	0	---	0.00	29.777 
04:50	44.2	44.2	44.2	79	38.1	0	0	---	0.00	29.777 
04:55	44.1	44.1	44.1	80	38.3	0	0	---	0.00	29.777 
05:00	44.1	44.1	44.1	81	38.6	0	0	---	0.00	29.779 
05:05	44.1	44.1	44.1	81	38.6	0	0	---	0.00	29.779 
05:10	43.9	43.9	43.9	82	38.8	0	0	---	0.00	29.779 
05:15	43.9	43.9	43.9	82	38.8	0	0	---	0.00	29.784 
05:20	43.9	43.9	43.9	83	39.1	0	0	---	0.00	29.784 
05:25	43.8	43.8	43.8	83	39.0	0	0	---	0.00	29.784 
05:30	43.6	43.6	43.6	84	39.1	0	0	---	0.00	29.783 
05:35	43.5	43.5	43.5	84	39.0	0	0	---	0.00	29.783 
05:40	43.3	43.3	43.3	84	38.8	0	0	---	0.00	29.783 
05:45	43.3	43.3	43.3	85	39.1	0	0	---	0.00	29.784 
05:50	43.2	43.2	43.2	85	39.0	0	0	---	0.00	29.784 
05:55	43.2	43.2	43.2	85	39.0	0	0	---	0.00	29.784 
06:00	43.2	43.2	43.2	86	39.3	0	1	292	0.00	29.794 
06:05	43.3	43.3	43.3	86	39.4	0	1	292	0.00	29.794 
06:10	43.5	43.5	43.5	87	39.9	0	1	292	0.00	29.794 
06:15	43.6	43.6	43.6	87	40.0	0	1	292	0.00	29.796 
06:20	43.5	43.5	43.5	87	39.9	0	1	292	0.00	29.796 
06:25	43.5	43.5	43.5	87	39.9	0	1	292	0.00	29.796 
06:30	43.3	43.3	43.3	87	39.7	0	1	292	0.00	29.801 
06:35	43.2	43.2	43.2	86	39.3	0	1	292	0.00	29.801 
06:40	43.1	43.1	43.1	86	39.2	0	1	292	0.00	29.801 
06:45	42.9	42.9	42.9	86	39.0	0	1	292	0.00	29.806 
06:50	42.8	42.8	42.8	85	38.6	0	1	45	0.00	29.806 
06:55	42.6	42.6	42.6	85	38.4	0	1	45	0.00	29.806 
07:00	42.6	42.6	42.6	84	38.1	0	1	45	0.00	29.811 
07:05	42.5	42.5	42.5	84	38.0	0	2	45	0.00	29.811 
07:10	42.5	42.5	42.5	82	37.4	0	2	45	0.00	29.811 
07:15	42.6	42.6	42.6	81	37.2	0	3	45	0.00	29.815 
07:20	42.8	42.8	42.8	80	37.1	0	4	292	0.00	29.815 
07:25	42.9	42.9	42.9	79	36.8	0	1	292	0.00	29.815 
07:30	43.1	43.1	43.1	78	36.7	0	2	292	0.00	29.817 
07:35	43.2	43.2	43.2	78	36.8	0	3	292	0.00	29.817 
07:40	43.3	43.3	43.3	77	36.6	1	3	292	0.00	29.817 
07:45	43.5	43.5	43.5	76	36.4	0	2	292	0.00	29.818 
07:50	43.8	43.8	43.8	75	36.4	0	1	292	0.00	29.818 
07:55	44.2	44.2	44.2	73	36.1	0	3	292	0.00	29.818 
08:00	44.8	44.8	44.8	70	35.6	0	4	90	0.00	29.813 
08:05	45.2	45.2	45.2	68	35.3	0	3	90	0.00	29.813 
08:10	45.7	45.7	45.7	68	35.8	1	7	45	0.00	29.813 
08:15	46.0	46.0	46.0	66	35.3	1	3	45	0.00	29.813 
08:20	46.4	46.4	46.4	65	35.3	0	3	45	0.00	29.813 
08:25	46.8	46.8	46.8	65	35.7	0	3	68	0.00	29.813 
08:30	47.1	47.1	47.1	63	35.2	1	2	68	0.00	29.819 
08:35	47.4	47.4	47.4	63	35.4	0	3	68	0.00	29.819 
08:40	47.7	47.7	47.7	62	35.3	0	3	68	0.00	29.819 
08:45	48.0	48.0	48.0	62	35.6	0	2	68	0.00	29.821 
08:50	48.2	48.2	48.2	62	35.8	0	2	68	0.00	29.821 
08:55	48.5	48.5	48.5	62	36.1	0	3	68	0.00	29.821 
09:00	48.8	48.8	48.8	61	36.0	0	2	68	0.00	29.825 
09:05	49.2	49.2	49.2	60	35.9	0	2	68	0.00	29.825 
09:10	49.4	49.4	49.4	60	36.1	1	4	68	0.00	29.825 
09:15	49.4	49.4	49.4	61	36.5	0	3	68	0.00	29.829 
09:20	49.6	49.6	49.6	61	36.7	1	3	68	0.00	29.829 
09:25	50.1	50.1	50.1	59	36.3	0	2	68	0.00	29.829 
09:30	50.8	50.8	50.8	59	37.0	0	1	68	0.00	29.827 
09:35	51.4	51.4	51.4	58	37.1	0	3	68	0.00	29.827 
09:40	52.0	52.0	52.0	58	37.7	0	2	68	0.00	29.827 
09:45	52.3	52.3	52.3	57	37.5	0	2	68	0.00	29.825 
09:50	52.8	52.8	52.8	58	38.4	0	2	68	0.00	29.825 
09:55	53.1	53.1	53.1	57	38.3	0	2	68	0.00	29.825 
10:00	53.2	53.2	53.2	58	38.8	0	3	68	0.00	29.831 
10:05	53.5	53.5	53.5	58	39.1	0	2	68	0.00	29.831 
10:10	53.2	53.2	53.2	57	38.4	1	3	68	0.00	29.831 
10:15	53.5	53.5	53.5	60	40.0	0	1	68	0.00	29.832 
10:20	53.8	53.8	53.8	58	39.4	1	3	68	0.00	29.832 
10:25	53.8	53.8	53.8	56	38.5	0	2	68	0.00	29.832 
10:30	53.6	53.6	53.6	57	38.7	1	5	68	0.00	29.831 
10:35	53.5	53.5	53.5	58	39.1	1	3	0	0.00	29.831 
10:40	53.9	53.9	53.9	58	39.5	1	4	0	0.00	29.831 
10:45	54.4	54.4	54.4	59	40.4	0	3	292	0.00	29.832 
10:50	55.4	55.4	55.4	60	41.7	1	6	22	0.00	29.832 
10:55	55.9	55.9	55.9	55	40.0	1	3	315	0.00	29.832 
11:00	55.7	55.7	55.7	52	38.3	1	4	45	0.00	29.835 
11:05	55.4	55.4	55.4	54	39.0	1	3	135	0.00	29.835 
11:10	55.4	55.4	55.4	53	38.6	1	3	45	0.00	29.835 
11:15	55.1	55.1	55.1	50	36.8	1	7	248	0.00	29.842 
11:20	55.0	55.0	55.0	51	37.2	1	2	248	0.00	29.842 
11:25	55.3	55.3	55.3	53	38.5	1	3	202	0.00	29.842 
11:30	55.3	55.3	55.3	52	38.0	1	5	338	0.00	29.843 
11:35	54.8	54.8	54.8	52	37.5	2	5	270	0.00	29.843 
11:40	55.1	55.1	55.1	52	37.8	1	2	270	0.00	29.843 
11:45	55.6	55.6	55.6	55	39.7	0	3	270	0.00	29.846 
11:50	55.9	55.9	55.9	49	37.0	1	3	292	0.00	29.846 
11:55	56.0	56.0	56.0	50	37.6	1	5	45	0.00	29.846 
12:00	56.0	56.0	56.0	49	37.1	1	3	315	0.00	29.846 
12:05	56.2	56.2	56.2	47	36.2	2	6	338	0.00	29.846 
12:10	56.3	56.3	56.3	46	35.8	1	3	315	0.00	29.846 
12:15	56.6	56.6	56.6	46	36.1	1	4	0	0.00	29.854 
12:20	57.0	57.0	57.0	45	35.9	1	5	135	0.00	29.854 
12:25	57.2	57.2	57.2	44	35.5	1	4	338	0.00	29.854 
12:30	56.6	56.6	56.6	45	35.5	2	4	292	0.00	29.853 
12:35	56.5	56.5	56.5	44	34.9	1	6	292	0.00	29.853 
12:40	56.7	56.7	56.7	45	35.6	2	6	270	0.00	29.853 
12:45	57.0	57.0	57.0	43	34.7	2	11	22	0.00	29.855 
12:50	56.7	56.7	56.7	44	35.0	1	6	338	0.00	29.855 
12:55	57.2	57.2	57.2	42	34.3	1	7	292	0.00	29.855 
13:00	57.8	57.8	57.8	39	33.0	1	3	68	0.00	29.849 
13:05	58.0	58.0	58.0	41	34.4	1	3	68	0.00	29.849 
13:10	58.1	58.1	58.1	40	33.9	1	4	45	0.00	29.849 
13:15	58.0	58.0	58.0	41	34.4	1	4	292	0.00	29.855 
13:20	56.9	56.9	56.9	39	32.2	1	4	315	0.00	29.855 
13:25	57.2	57.2	57.2	39	32.5	1	3	45	0.00	29.855 
13:30	56.7	56.7	56.7	37	30.7	2	4	90	0.00	29.859 
13:35	56.5	56.5	56.5	41	33.1	1	3	90	0.00	29.859 
13:40	57.3	57.3	57.3	38	31.9	2	6	90	0.00	29.859 
13:45	57.2	57.2	57.2	37	31.2	1	3	22	0.00	29.861 
13:50	56.6	56.6	56.6	39	31.9	1	4	22	0.00	29.861 
13:55	56.9	56.9	56.9	41	33.4	1	4	315	0.00	29.861 
14:00	57.5	57.5	57.5	39	32.7	2	9	90	0.00	29.861 
14:05	56.7	56.7	56.7	35	29.4	1	5	338	0.00	29.861 
14:10	56.5	56.5	56.5	38	31.2	1	3	338	0.00	29.861 
14:15	56.5	56.5	56.5	39	31.8	1	5	338	0.00	29.862 
14:20	56.5	56.5	56.5	37	30.5	1	6	0	0.00	29.862 
14:25	56.5	56.5	56.5	38	31.2	0	2	0	0.00	29.862 
14:30	56.7	56.7	56.7	40	32.7	1	5	0	0.00	29.863 
14:35	57.8	57.8	57.8	37	31.7	2	4	292	0.00	29.863 
14:40	58.0	58.0	58.0	36	31.2	1	6	90	0.00	29.863 
14:45	58.3	58.3	58.3	38	32.8	1	5	90	0.00	29.860 
14:50	58.4	58.4	58.4	36	31.6	1	7	315	0.00	29.860 
14:55	58.0	58.0	58.0	35	30.5	1	4	270	0.00	29.860 
15:00	58.1	58.1	58.1	32	28.4	1	3	270	0.00	29.862 
15:05	59.0	59.0	59.0	39	34.1	0	2	270	0.00	29.862 
15:10	59.2	59.2	59.2	32	29.4	2	6	292	0.00	29.862 
15:15	58.9	58.9	58.9	32	29.1	1	5	338	0.00	29.862 
15:20	59.0	59.0	59.0	32	29.2	2	7	338	0.00	29.862 
15:25	59.3	59.3	59.3	35	31.7	1	4	338	0.00	29.862 
15:30	59.5	59.5	59.5	31	28.8	2	6	0	0.00	29.862 
15:35	59.6	59.6	59.6	32	29.7	1	6	0	0.00	29.862 
15:40	59.9	59.9	59.9	34	31.5	1	4	292	0.00	29.862 
15:45	59.8	59.8	59.8	31	29.1	1	3	315	0.00	29.861 
15:50	59.3	59.3	59.3	31	28.7	1	5	112	0.00	29.861 
15:55	59.5	59.5	59.5	32	29.6	1	3	90	0.00	29.861 
16:00	59.6	59.6	59.6	28	26.5	2	5	315	0.00	29.861 
16:05	59.8	59.8	59.8	33	30.6	0	2	315	0.00	29.861 
16:10	60.7	60.7	60.7	33	31.4	1	3	315	0.00	29.861 
16:15	61.0	61.0	61.0	29	28.5	1	7	0	0.00	29.862 
16:20	60.7	60.7	60.7	28	27.4	1	5	338	0.00	29.862 
16:25	60.5	60.5	60.5	28	27.2	1	4	270	0.00	29.862 
16:30	60.2	60.2	60.2	28	27.0	1	4	292	0.00	29.864 
16:35	59.5	59.5	59.5	27	25.5	2	6	0	0.00	29.864 
16:40	59.0	59.0	59.0	29	26.8	1	4	315	0.00	29.864 
16:45	59.6	59.6	59.6	28	26.5	1	6	292	0.00	29.864 
16:50	59.9	59.9	59.9	28	26.7	1	3	338	0.00	29.864 
16:55	59.9	59.9	59.9	28	26.7	1	3	0	0.00	29.864 
17:00	59.9	59.9	59.9	28	26.7	2	6	315	0.00	29.871 
17:05	59.5	59.5	59.5	29	27.2	1	4	315	0.00	29.871 
17:10	59.6	59.6	59.6	30	28.1	1	4	338	0.00	29.871 
17:15	59.8	59.8	59.8	27	25.8	2	10	112	0.00	29.872 
17:20	59.8	59.8	59.8	29	27.5	1	2	90	0.00	29.872 
17:25	59.5	59.5	59.5	29	27.2	1	5	90	0.00	29.872 
17:30	59.2	59.2	59.2	29	27.0	0	3	68	0.00	29.879 
17:35	59.0	59.0	59.0	31	28.4	1	3	45	0.00	29.879 
17:40	59.0	59.0	59.0	31	28.4	1	5	90	0.00	29.879 
17:45	59.2	59.2	59.2	32	29.4	1	5	22	0.00	29.881 
17:50	59.2	59.2	59.2	33	30.1	2	7	338	0.00	29.881 
17:55	58.7	58.7	58.7	33	29.7	2	5	338	0.00	29.881 
18:00	58.3	58.3	58.3	35	30.8	2	7	90	0.00	29.894 
18:05	58.1	58.1	58.1	34	29.9	1	3	68	0.00	29.894 
18:10	58.0	58.0	58.0	33	29.1	1	9	22	0.00	29.894 
18:15	57.6	57.6	57.6	34	29.4	1	4	68	0.00	29.898 
18:20	57.5	57.5	57.5	35	30.1	1	5	90	0.00	29.898 
18:25	57.2	57.2	57.2	34	29.1	2	10	45	0.00	29.898 
18:30	57.0	57.0	57.0	35	29.6	1	6	45	0.00	29.909 
18:35	57.0	57.0	57.0	36	30.3	0	2	0	0.00	29.909 
18:40	57.0	57.0	57.0	38	31.6	1	4	0	0.00	29.909 
18:45	56.9	56.9	56.9	41	33.4	2	5	68	0.00	29.915 
18:50	56.5	56.5	56.5	42	33.7	2	7	45	0.00	29.915 
18:55	56.3	56.3	56.3	43	34.1	2	7	112	0.00	29.915 
19:00	56.0	56.0	56.0	45	35.0	1	6	112	0.00	29.927 
19:05	56.0	56.0	56.0	45	35.0	1	5	248	0.00	29.927 
19:10	55.9	55.9	55.9	42	33.1	1	5	90	0.00	29.927 
19:15	55.7	55.7	55.7	41	32.4	1	4	90	0.00	29.927 
19:20	55.6	55.6	55.6	42	32.9	1	3	292	0.00	29.927 
19:25	55.4	55.4	55.4	43	33.3	2	4	45	0.00	29.927 
19:30	55.3	55.3	55.3	46	34.9	1	6	68	0.00	29.932 
19:35	55.0	55.0	55.0	48	35.7	1	5	45	0.00	29.932 
19:40	54.7	54.7	54.7	50	36.4	1	3	90	0.00	29.932 
19:45	54.4	54.4	54.4	50	36.2	0	3	90	0.00	29.938 
19:50	54.2	54.2	54.2	50	36.0	0	1	90	0.00	29.938 
19:55	54.1	54.1	54.1	50	35.9	0	2	90	0.00	29.938 
20:00	53.9	53.9	53.9	51	36.2	0	2	90	0.00	29.936 
20:05	53.8	53.8	53.8	51	36.1	0	1	90	0.00	29.936 
20:10	53.6	53.6	53.6	52	36.4	0	0	---	0.00	29.936 
20:15	53.5	53.5	53.5	52	36.3	0	0	---	0.00	29.933 
20:20	53.5	53.5	53.5	53	36.8	0	0	---	0.00	29.933 
20:25	53.3	53.3	53.3	53	36.6	0	0	---	0.00	29.933 
20:30	53.3	53.3	53.3	53	36.6	0	0	---	0.00	29.939 
20:35	53.2	53.2	53.2	54	37.0	0	0	---	0.00	29.939 
20:40	53.1	53.1	53.1	54	36.9	0	0	---	0.00	29.939 
20:45	53.1	53.1	53.1	54	36.9	0	0	---	0.00	29.943 
20:50	52.9	52.9	52.9	54	36.7	0	0	---	0.00	29.943 
20:55	52.9	52.9	52.9	54	36.7	0	0	---	0.00	29.943 
21:00	52.8	52.8	52.8	54	36.6	0	0	---	0.00	29.947 
21:05	52.8	52.8	52.8	54	36.6	0	0	---	0.00	29.947 
21:10	52.8	52.8	52.8	54	36.6	0	0	---	0.00	29.947 
21:15	52.6	52.6	52.6	54	36.4	0	0	---	0.00	29.951 
21:20	52.6	52.6	52.6	54	36.4	0	0	---	0.00	29.951 
21:25	52.6	52.6	52.6	54	36.4	0	0	---	0.00	29.951 
21:30	52.6	52.6	52.6	57	37.8	0	1	90	0.00	29.954 
21:35	52.8	52.8	52.8	53	36.1	1	3	90	0.00	29.954 
21:40	53.1	53.1	53.1	52	35.9	2	5	315	0.00	29.954 
21:45	52.9	52.9	52.9	52	35.8	2	4	292	0.00	29.967 
21:50	52.8	52.8	52.8	53	36.1	2	5	292	0.00	29.967 
21:55	52.5	52.5	52.5	53	35.9	2	7	292	0.00	29.967 
22:00	52.5	52.5	52.5	53	35.9	2	5	292	0.00	29.969 
22:05	52.3	52.3	52.3	53	35.7	2	4	292	0.00	29.969 
22:10	52.3	52.3	52.3	53	35.7	1	2	292	0.00	29.969 
22:15	52.3	52.3	52.3	54	36.2	1	5	292	0.00	29.969 
22:20	52.2	52.2	52.2	53	35.6	1	7	292	0.00	29.969 
22:25	52.2	52.2	52.2	53	35.6	1	5	0	0.00	29.969 
22:30	52.2	52.2	52.2	53	35.6	2	6	292	0.00	29.976 
22:35	52.0	52.0	52.0	53	35.4	2	4	292	0.00	29.976 
22:40	52.0	52.0	52.0	53	35.4	1	3	292	0.00	29.976 
22:45	52.0	52.0	52.0	53	35.4	1	5	338	0.00	29.984 
22:50	51.9	51.9	51.9	53	35.3	1	3	292	0.00	29.984 
22:55	51.7	51.7	51.7	53	35.1	1	4	292	0.00	29.984 
23:00	51.6	51.6	51.6	53	35.0	2	6	292	0.00	29.984 
23:05	51.4	51.4	51.4	53	34.8	2	4	292	0.00	29.984 
23:10	51.3	51.3	51.3	53	34.8	2	5	292	0.00	29.984 
23:15	51.0	51.0	51.0	54	34.9	1	4	292	0.00	29.987 
23:20	50.8	50.8	50.8	54	34.8	1	4	315	0.00	29.987 
23:25	50.5	50.5	50.5	54	34.5	2	5	292	0.00	29.987 
23:30	50.2	50.2	50.2	54	34.2	2	4	292	0.00	29.987 
23:35	50.1	50.1	50.1	54	34.1	2	5	292	0.00	29.987 
23:40	50.1	50.1	50.1	54	34.1	1	4	270	0.00	29.987 
23:45	49.8	49.8	49.8	55	34.3	2	5	0	0.00	29.987 
23:50	49.6	49.6	49.6	55	34.1	1	5	338	0.00	29.987 
23:55	49.4	49.4	49.4	55	33.9	1	3	338	0.00	29.987 

CoCoRaHS
IN-AL-39
A2 Web Hosting
Creative Commons License
GoDaddy
search engine by freefind advanced

loaded 2018-11-17 18:20:20 • last modified 2010-11-18 10:43:29
Privacy PolicyDisclaimer
• wx.awcolley.com is powered by PmWiki v.2002016 •
• all content (unless otherwise noted) © 2018 A W Colley